Terminal Aerodrome Forecast
Issued by NWS Charleston, WV

Current Version | Previous Version | Graphics & Text | Print | Product List | Glossary On
Versions: 1 2 3 4 5 6 7 8 9 10 11 12 13 14 15 16 17 18 19 20 21 22 23 24 25 26 27 28 29
000
FTUS41 KRLX 230212 AAB
TAFBKW
TAF AMD
KBKW 230212Z 2302/2324 03006KT 1/4SM -DZ FG OVC002
     FM231300 07008KT 6SM SHRA BR OVC006
     FM231600 10009G16KT 3SM SHRA OVC010
     FM231900 10009G16KT 3SM SHRA OVC007=

USA.gov is the U.S. government's official web portal to all federal, state and local government web resources and services.